Eagle Lake, Minnesota
Current Conditions -  °F | °C
As of 10:15 PM on Sunday 25 Jan 2015 (Local Time) from KMKT Reporting Station
Overcast Overcast  
Wind Chill: 19°   Ceiling: 2000
Heat Index: 25°   Visibility: 10mi
Dew Point: 19°   Wind: 5mph
Humidity: 80%   Direction: 160°SSE
Pressure: 30"   Gusts: NA
Location:  44.16°N, 93.88°W
Report Text: KMKT 260415Z AUTO 16004KT 10SM OVC020 M04/M07 A3000 RMK AO1
Loading
Personal Weather Stations






























Interactive Weather Map New forecast layout! Learn more

10-Day Weather Forecast

Advertisements
Track Severe Weather on mobile